sensor_id;sensor_type;location;lat;lon;timestamp;P1;durP1;ratioP1;P2;durP2;ratioP2
19883;SDS011;10104;50.732;10.174;2023-02-28T00:01:06;4.70;;;3.00;;
19883;SDS011;10104;50.732;10.174;2023-02-28T00:03:28;10.40;;;5.83;;
19883;SDS011;10104;50.732;10.174;2023-02-28T00:05:49;8.60;;;5.50;;
19883;SDS011;10104;50.732;10.174;2023-02-28T00:08:11;4.73;;;2.40;;
19883;SDS011;10104;50.732;10.174;2023-02-28T00:10:33;3.83;;;1.93;;
19883;SDS011;10104;50.732;10.174;2023-02-28T00:12:56;2.93;;;1.97;;
19883;SDS011;10104;50.732;10.174;2023-02-28T00:15:22;4.63;;;3.20;;
19883;SDS011;10104;50.732;10.174;2023-02-28T00:17:44;3.70;;;2.33;;
19883;SDS011;10104;50.732;10.174;2023-02-28T00:20:06;2.87;;;1.80;;
19883;SDS011;10104;50.732;10.174;2023-02-28T00:22:33;3.30;;;2.07;;
19883;SDS011;10104;50.732;10.174;2023-02-28T00:24:54;3.90;;;2.10;;
19883;SDS011;10104;50.732;10.174;2023-02-28T00:27:15;3.60;;;2.33;;
19883;SDS011;10104;50.732;10.174;2023-02-28T00:29:37;2.40;;;2.10;;
19883;SDS011;10104;50.732;10.174;2023-02-28T00:31:58;3.90;;;2.07;;
19883;SDS011;10104;50.732;10.174;2023-02-28T00:34:20;2.90;;;2.10;;
19883;SDS011;10104;50.732;10.174;2023-02-28T00:36:41;3.33;;;2.27;;
19883;SDS011;10104;50.732;10.174;2023-02-28T00:39:06;3.10;;;2.23;;
19883;SDS011;10104;50.732;10.174;2023-02-28T00:41:27;2.97;;;2.07;;
19883;SDS011;10104;50.732;10.174;2023-02-28T00:43:49;5.67;;;1.70;;
19883;SDS011;10104;50.732;10.174;2023-02-28T00:46:11;3.37;;;2.00;;
19883;SDS011;10104;50.732;10.174;2023-02-28T00:48:33;4.03;;;1.80;;
19883;SDS011;10104;50.732;10.174;2023-02-28T00:50:54;2.93;;;1.97;;
19883;SDS011;10104;50.732;10.174;2023-02-28T00:53:16;2.83;;;1.70;;
19883;SDS011;10104;50.732;10.174;2023-02-28T00:55:37;3.77;;;2.00;;
19883;SDS011;10104;50.732;10.174;2023-02-28T00:57:59;2.27;;;1.87;;
19883;SDS011;10104;50.732;10.174;2023-02-28T01:00:20;2.70;;;1.60;;
19883;SDS011;10104;50.732;10.174;2023-02-28T01:02:42;3.23;;;2.03;;
19883;SDS011;10104;50.732;10.174;2023-02-28T01:05:03;3.30;;;2.00;;
19883;SDS011;10104;50.732;10.174;2023-02-28T01:07:25;3.17;;;2.10;;
19883;SDS011;10104;50.732;10.174;2023-02-28T01:09:47;2.60;;;1.70;;
19883;SDS011;10104;50.732;10.174;2023-02-28T01:12:08;2.80;;;1.97;;
19883;SDS011;10104;50.732;10.174;2023-02-28T01:14:30;4.00;;;1.77;;
19883;SDS011;10104;50.732;10.174;2023-02-28T01:16:51;4.43;;;2.03;;
19883;SDS011;10104;50.732;10.174;2023-02-28T01:19:13;4.87;;;2.47;;
19883;SDS011;10104;50.732;10.174;2023-02-28T01:21:34;4.77;;;2.00;;
19883;SDS011;10104;50.732;10.174;2023-02-28T01:23:57;4.43;;;2.10;;
19883;SDS011;10104;50.732;10.174;2023-02-28T01:26:19;3.23;;;2.20;;
19883;SDS011;10104;50.732;10.174;2023-02-28T01:28:42;4.47;;;2.10;;
19883;SDS011;10104;50.732;10.174;2023-02-28T01:31:04;3.40;;;2.27;;
19883;SDS011;10104;50.732;10.174;2023-02-28T01:33:26;2.50;;;2.03;;
19883;SDS011;10104;50.732;10.174;2023-02-28T01:35:49;3.23;;;2.03;;
19883;SDS011;10104;50.732;10.174;2023-02-28T01:38:11;6.00;;;2.53;;
19883;SDS011;10104;50.732;10.174;2023-02-28T01:40:42;3.30;;;2.10;;
19883;SDS011;10104;50.732;10.174;2023-02-28T01:43:05;4.43;;;2.70;;
19883;SDS011;10104;50.732;10.174;2023-02-28T01:45:45;4.97;;;2.30;;
19883;SDS011;10104;50.732;10.174;2023-02-28T01:48:07;5.17;;;2.47;;
19883;SDS011;10104;50.732;10.174;2023-02-28T01:50:31;3.00;;;2.20;;
19883;SDS011;10104;50.732;10.174;2023-02-28T01:52:59;3.83;;;2.37;;
19883;SDS011;10104;50.732;10.174;2023-02-28T01:55:26;5.27;;;2.70;;
19883;SDS011;10104;50.732;10.174;2023-02-28T01:57:50;3.30;;;2.40;;
19883;SDS011;10104;50.732;10.174;2023-02-28T02:00:17;2.97;;;2.27;;
19883;SDS011;10104;50.732;10.174;2023-02-28T02:02:45;2.80;;;2.40;;
19883;SDS011;10104;50.732;10.174;2023-02-28T02:05:10;4.13;;;2.23;;
19883;SDS011;10104;50.732;10.174;2023-02-28T02:07:43;3.63;;;2.57;;
19883;SDS011;10104;50.732;10.174;2023-02-28T02:15:16;3.83;;;2.60;;
19883;SDS011;10104;50.732;10.174;2023-02-28T02:17:44;5.13;;;2.37;;
19883;SDS011;10104;50.732;10.174;2023-02-28T02:23:22;5.10;;;2.70;;
19883;SDS011;10104;50.732;10.174;2023-02-28T02:28:43;5.40;;;2.90;;
19883;SDS011;10104;50.732;10.174;2023-02-28T02:34:20;5.33;;;2.90;;
19883;SDS011;10104;50.732;10.174;2023-02-28T02:36:58;5.93;;;2.90;;
19883;SDS011;10104;50.732;10.174;2023-02-28T02:40:23;4.90;;;3.03;;
19883;SDS011;10104;50.732;10.174;2023-02-28T02:45:21;4.13;;;3.07;;
19883;SDS011;10104;50.732;10.174;2023-02-28T02:47:46;6.40;;;3.37;;
19883;SDS011;10104;50.732;10.174;2023-02-28T02:50:14;5.07;;;3.07;;
19883;SDS011;10104;50.732;10.174;2023-02-28T02:52:42;5.27;;;3.20;;
19883;SDS011;10104;50.732;10.174;2023-02-28T02:55:19;3.97;;;2.97;;
19883;SDS011;10104;50.732;10.174;2023-02-28T02:57:54;4.63;;;3.23;;
19883;SDS011;10104;50.732;10.174;2023-02-28T03:00:22;5.57;;;3.40;;
19883;SDS011;10104;50.732;10.174;2023-02-28T03:02:48;4.60;;;3.23;;
19883;SDS011;10104;50.732;10.174;2023-02-28T03:05:14;4.30;;;3.10;;
19883;SDS011;10104;50.732;10.174;2023-02-28T03:07:44;6.53;;;3.37;;
19883;SDS011;10104;50.732;10.174;2023-02-28T03:12:54;6.50;;;3.93;;
19883;SDS011;10104;50.732;10.174;2023-02-28T03:15:33;5.40;;;2.93;;
19883;SDS011;10104;50.732;10.174;2023-02-28T03:18:08;4.40;;;3.07;;
19883;SDS011;10104;50.732;10.174;2023-02-28T03:20:40;4.77;;;3.40;;
19883;SDS011;10104;50.732;10.174;2023-02-28T03:23:26;5.20;;;3.20;;
19883;SDS011;10104;50.732;10.174;2023-02-28T03:26:22;4.43;;;3.27;;
19883;SDS011;10104;50.732;10.174;2023-02-28T03:31:37;4.83;;;3.20;;
19883;SDS011;10104;50.732;10.174;2023-02-28T03:34:04;5.20;;;3.87;;
19883;SDS011;10104;50.732;10.174;2023-02-28T03:36:42;4.53;;;3.50;;
19883;SDS011;10104;50.732;10.174;2023-02-28T03:39:11;6.80;;;4.17;;
19883;SDS011;10104;50.732;10.174;2023-02-28T03:41:44;5.47;;;3.73;;
19883;SDS011;10104;50.732;10.174;2023-02-28T03:44:12;6.23;;;3.90;;
19883;SDS011;10104;50.732;10.174;2023-02-28T03:46:39;4.23;;;3.47;;
19883;SDS011;10104;50.732;10.174;2023-02-28T03:49:09;5.60;;;3.50;;
19883;SDS011;10104;50.732;10.174;2023-02-28T03:51:37;6.67;;;4.23;;
19883;SDS011;10104;50.732;10.174;2023-02-28T03:54:09;8.27;;;4.67;;
19883;SDS011;10104;50.732;10.174;2023-02-28T03:56:40;5.93;;;4.07;;
19883;SDS011;10104;50.732;10.174;2023-02-28T03:59:12;6.77;;;4.87;;
19883;SDS011;10104;50.732;10.174;2023-02-28T04:01:43;9.93;;;4.97;;
19883;SDS011;10104;50.732;10.174;2023-02-28T04:04:06;8.17;;;4.40;;
19883;SDS011;10104;50.732;10.174;2023-02-28T04:06:30;7.70;;;4.43;;
19883;SDS011;10104;50.732;10.174;2023-02-28T04:08:53;9.13;;;5.33;;
19883;SDS011;10104;50.732;10.174;2023-02-28T04:11:20;9.90;;;4.83;;
19883;SDS011;10104;50.732;10.174;2023-02-28T04:13:49;7.17;;;4.67;;
19883;SDS011;10104;50.732;10.174;2023-02-28T04:16:10;7.27;;;4.23;;
19883;SDS011;10104;50.732;10.174;2023-02-28T04:18:44;6.67;;;4.30;;
19883;SDS011;10104;50.732;10.174;2023-02-28T04:21:06;7.20;;;5.07;;
19883;SDS011;10104;50.732;10.174;2023-02-28T04:23:28;8.33;;;5.27;;
19883;SDS011;10104;50.732;10.174;2023-02-28T04:25:49;7.60;;;4.97;;
19883;SDS011;10104;50.732;10.174;2023-02-28T04:28:12;7.57;;;5.13;;
19883;SDS011;10104;50.732;10.174;2023-02-28T04:30:33;9.53;;;5.37;;
19883;SDS011;10104;50.732;10.174;2023-02-28T04:32:55;7.73;;;5.60;;
19883;SDS011;10104;50.732;10.174;2023-02-28T04:35:16;6.57;;;5.00;;
19883;SDS011;10104;50.732;10.174;2023-02-28T04:37:38;7.90;;;5.73;;
19883;SDS011;10104;50.732;10.174;2023-02-28T04:39:59;7.07;;;4.80;;
19883;SDS011;10104;50.732;10.174;2023-02-28T04:42:21;6.90;;;5.33;;
19883;SDS011;10104;50.732;10.174;2023-02-28T04:44:42;6.93;;;5.43;;
19883;SDS011;10104;50.732;10.174;2023-02-28T04:47:05;8.73;;;5.97;;
19883;SDS011;10104;50.732;10.174;2023-02-28T04:49:26;8.73;;;5.50;;
19883;SDS011;10104;50.732;10.174;2023-02-28T04:51:48;8.60;;;5.90;;
19883;SDS011;10104;50.732;10.174;2023-02-28T04:54:11;9.73;;;6.30;;
19883;SDS011;10104;50.732;10.174;2023-02-28T04:56:32;8.77;;;5.50;;
19883;SDS011;10104;50.732;10.174;2023-02-28T04:58:54;9.13;;;6.57;;
19883;SDS011;10104;50.732;10.174;2023-02-28T05:03:39;9.13;;;6.90;;
19883;SDS011;10104;50.732;10.174;2023-02-28T05:06:04;8.20;;;6.27;;
19883;SDS011;10104;50.732;10.174;2023-02-28T05:08:25;8.87;;;6.70;;
19883;SDS011;10104;50.732;10.174;2023-02-28T05:10:47;10.43;;;7.67;;
19883;SDS011;10104;50.732;10.174;2023-02-28T05:13:11;9.80;;;6.70;;
19883;SDS011;10104;50.732;10.174;2023-02-28T05:15:33;10.37;;;7.07;;
19883;SDS011;10104;50.732;10.174;2023-02-28T05:17:55;7.67;;;6.20;;
19883;SDS011;10104;50.732;10.174;2023-02-28T05:20:17;7.40;;;6.33;;
19883;SDS011;10104;50.732;10.174;2023-02-28T05:22:39;9.30;;;6.60;;
19883;SDS011;10104;50.732;10.174;2023-02-28T05:25:02;10.10;;;6.63;;
19883;SDS011;10104;50.732;10.174;2023-02-28T05:27:24;9.53;;;6.37;;
19883;SDS011;10104;50.732;10.174;2023-02-28T05:29:46;11.17;;;6.93;;
19883;SDS011;10104;50.732;10.174;2023-02-28T05:32:13;9.73;;;7.00;;
19883;SDS011;10104;50.732;10.174;2023-02-28T05:34:36;8.70;;;6.97;;
19883;SDS011;10104;50.732;10.174;2023-02-28T05:37:00;10.90;;;7.80;;
19883;SDS011;10104;50.732;10.174;2023-02-28T05:39:22;9.10;;;6.50;;
19883;SDS011;10104;50.732;10.174;2023-02-28T05:41:43;8.47;;;6.70;;
19883;SDS011;10104;50.732;10.174;2023-02-28T05:44:05;7.87;;;6.07;;
19883;SDS011;10104;50.732;10.174;2023-02-28T05:46:26;8.00;;;6.37;;
19883;SDS011;10104;50.732;10.174;2023-02-28T05:48:48;10.90;;;6.13;;
19883;SDS011;10104;50.732;10.174;2023-02-28T05:51:10;8.87;;;5.57;;
19883;SDS011;10104;50.732;10.174;2023-02-28T05:53:32;8.20;;;5.10;;
19883;SDS011;10104;50.732;10.174;2023-02-28T05:55:54;10.57;;;6.00;;
19883;SDS011;10104;50.732;10.174;2023-02-28T05:58:15;8.60;;;5.67;;
19883;SDS011;10104;50.732;10.174;2023-02-28T06:00:37;9.80;;;5.67;;
19883;SDS011;10104;50.732;10.174;2023-02-28T06:03:01;10.40;;;6.03;;
19883;SDS011;10104;50.732;10.174;2023-02-28T06:05:23;12.47;;;6.73;;
19883;SDS011;10104;50.732;10.174;2023-02-28T06:07:45;8.57;;;5.80;;
19883;SDS011;10104;50.732;10.174;2023-02-28T06:10:07;10.33;;;6.10;;
19883;SDS011;10104;50.732;10.174;2023-02-28T06:12:29;7.90;;;6.50;;
19883;SDS011;10104;50.732;10.174;2023-02-28T06:14:50;9.20;;;6.33;;
19883;SDS011;10104;50.732;10.174;2023-02-28T06:17:12;8.93;;;5.73;;
19883;SDS011;10104;50.732;10.174;2023-02-28T06:19:33;23.50;;;10.90;;
19883;SDS011;10104;50.732;10.174;2023-02-28T06:21:55;10.47;;;7.10;;
19883;SDS011;10104;50.732;10.174;2023-02-28T06:24:18;11.10;;;7.63;;
19883;SDS011;10104;50.732;10.174;2023-02-28T06:26:40;14.47;;;7.87;;
19883;SDS011;10104;50.732;10.174;2023-02-28T06:29:02;13.40;;;7.57;;
19883;SDS011;10104;50.732;10.174;2023-02-28T06:31:24;12.13;;;7.40;;
19883;SDS011;10104;50.732;10.174;2023-02-28T06:33:47;11.60;;;7.60;;
19883;SDS011;10104;50.732;10.174;2023-02-28T06:36:10;12.73;;;6.87;;
19883;SDS011;10104;50.732;10.174;2023-02-28T06:38:34;11.60;;;7.30;;
19883;SDS011;10104;50.732;10.174;2023-02-28T06:40:56;11.73;;;7.07;;
19883;SDS011;10104;50.732;10.174;2023-02-28T06:43:19;10.93;;;7.33;;
19883;SDS011;10104;50.732;10.174;2023-02-28T06:45:41;12.57;;;8.87;;
19883;SDS011;10104;50.732;10.174;2023-02-28T06:48:04;11.73;;;8.27;;
19883;SDS011;10104;50.732;10.174;2023-02-28T06:50:26;13.90;;;9.00;;
19883;SDS011;10104;50.732;10.174;2023-02-28T06:52:49;22.33;;;12.10;;
19883;SDS011;10104;50.732;10.174;2023-02-28T06:55:15;39.20;;;18.77;;
19883;SDS011;10104;50.732;10.174;2023-02-28T06:57:36;35.43;;;17.67;;
19883;SDS011;10104;50.732;10.174;2023-02-28T06:59:58;28.00;;;14.60;;
19883;SDS011;10104;50.732;10.174;2023-02-28T07:02:20;21.30;;;11.57;;
19883;SDS011;10104;50.732;10.174;2023-02-28T07:04:42;19.53;;;11.70;;
19883;SDS011;10104;50.732;10.174;2023-02-28T07:07:05;15.50;;;9.37;;
19883;SDS011;10104;50.732;10.174;2023-02-28T07:09:27;15.33;;;8.17;;
19883;SDS011;10104;50.732;10.174;2023-02-28T07:11:51;14.00;;;8.77;;
19883;SDS011;10104;50.732;10.174;2023-02-28T07:14:12;12.37;;;8.17;;
19883;SDS011;10104;50.732;10.174;2023-02-28T07:16:34;12.50;;;6.70;;
19883;SDS011;10104;50.732;10.174;2023-02-28T07:18:56;10.90;;;7.37;;
19883;SDS011;10104;50.732;10.174;2023-02-28T07:21:18;9.60;;;6.83;;
19883;SDS011;10104;50.732;10.174;2023-02-28T07:23:39;9.97;;;6.60;;
19883;SDS011;10104;50.732;10.174;2023-02-28T07:26:02;9.03;;;5.97;;
19883;SDS011;10104;50.732;10.174;2023-02-28T07:28:24;11.07;;;6.50;;
19883;SDS011;10104;50.732;10.174;2023-02-28T07:30:46;7.33;;;5.63;;
19883;SDS011;10104;50.732;10.174;2023-02-28T07:33:09;7.33;;;5.17;;
19883;SDS011;10104;50.732;10.174;2023-02-28T07:35:31;6.57;;;4.73;;
19883;SDS011;10104;50.732;10.174;2023-02-28T07:37:52;7.77;;;5.70;;
19883;SDS011;10104;50.732;10.174;2023-02-28T07:40:14;7.27;;;5.60;;
19883;SDS011;10104;50.732;10.174;2023-02-28T07:42:36;8.37;;;5.53;;
19883;SDS011;10104;50.732;10.174;2023-02-28T07:44:57;7.67;;;5.43;;
19883;SDS011;10104;50.732;10.174;2023-02-28T07:47:20;7.27;;;5.67;;
19883;SDS011;10104;50.732;10.174;2023-02-28T07:49:41;8.93;;;5.63;;
19883;SDS011;10104;50.732;10.174;2023-02-28T07:52:03;10.20;;;5.23;;
19883;SDS011;10104;50.732;10.174;2023-02-28T07:54:26;9.43;;;5.57;;
19883;SDS011;10104;50.732;10.174;2023-02-28T07:56:47;9.47;;;6.23;;
19883;SDS011;10104;50.732;10.174;2023-02-28T07:59:09;10.33;;;6.30;;
19883;SDS011;10104;50.732;10.174;2023-02-28T08:01:30;10.20;;;6.30;;
19883;SDS011;10104;50.732;10.174;2023-02-28T08:03:52;9.00;;;6.30;;
19883;SDS011;10104;50.732;10.174;2023-02-28T08:06:17;9.30;;;5.60;;
19883;SDS011;10104;50.732;10.174;2023-02-28T08:08:40;9.40;;;6.40;;
19883;SDS011;10104;50.732;10.174;2023-02-28T08:11:02;11.27;;;7.17;;
19883;SDS011;10104;50.732;10.174;2023-02-28T08:13:24;9.63;;;6.40;;
19883;SDS011;10104;50.732;10.174;2023-02-28T08:15:46;10.53;;;6.07;;
19883;SDS011;10104;50.732;10.174;2023-02-28T08:18:09;8.20;;;5.77;;
19883;SDS011;10104;50.732;10.174;2023-02-28T08:20:31;8.73;;;5.90;;
19883;SDS011;10104;50.732;10.174;2023-02-28T08:22:52;6.93;;;5.83;;
19883;SDS011;10104;50.732;10.174;2023-02-28T08:25:14;8.17;;;6.00;;
19883;SDS011;10104;50.732;10.174;2023-02-28T08:27:35;9.63;;;6.07;;
19883;SDS011;10104;50.732;10.174;2023-02-28T08:29:57;8.07;;;5.60;;
19883;SDS011;10104;50.732;10.174;2023-02-28T08:32:18;7.67;;;5.67;;
19883;SDS011;10104;50.732;10.174;2023-02-28T08:34:50;7.07;;;5.63;;
19883;SDS011;10104;50.732;10.174;2023-02-28T08:37:12;6.60;;;5.00;;
19883;SDS011;10104;50.732;10.174;2023-02-28T08:39:34;8.00;;;5.47;;
19883;SDS011;10104;50.732;10.174;2023-02-28T08:41:57;8.60;;;5.80;;
19883;SDS011;10104;50.732;10.174;2023-02-28T08:44:28;47.33;;;23.73;;
19883;SDS011;10104;50.732;10.174;2023-02-28T08:46:49;57.73;;;31.43;;
19883;SDS011;10104;50.732;10.174;2023-02-28T08:49:11;78.80;;;44.03;;
19883;SDS011;10104;50.732;10.174;2023-02-28T08:51:32;24.90;;;15.97;;
19883;SDS011;10104;50.732;10.174;2023-02-28T08:53:58;11.40;;;8.10;;
19883;SDS011;10104;50.732;10.174;2023-02-28T08:56:21;11.47;;;7.80;;
19883;SDS011;10104;50.732;10.174;2023-02-28T08:58:43;9.43;;;5.87;;
19883;SDS011;10104;50.732;10.174;2023-02-28T09:01:07;12.77;;;7.77;;
19883;SDS011;10104;50.732;10.174;2023-02-28T09:03:33;9.93;;;5.60;;
19883;SDS011;10104;50.732;10.174;2023-02-28T09:05:56;10.93;;;7.27;;
19883;SDS011;10104;50.732;10.174;2023-02-28T09:08:18;13.40;;;6.23;;
19883;SDS011;10104;50.732;10.174;2023-02-28T09:10:40;13.13;;;5.80;;
19883;SDS011;10104;50.732;10.174;2023-02-28T09:13:01;7.63;;;4.80;;
19883;SDS011;10104;50.732;10.174;2023-02-28T09:15:23;7.87;;;5.37;;
19883;SDS011;10104;50.732;10.174;2023-02-28T09:17:44;7.33;;;5.20;;
19883;SDS011;10104;50.732;10.174;2023-02-28T09:20:08;8.23;;;5.40;;
19883;SDS011;10104;50.732;10.174;2023-02-28T09:22:31;9.97;;;5.03;;
19883;SDS011;10104;50.732;10.174;2023-02-28T09:24:52;7.17;;;4.70;;
19883;SDS011;10104;50.732;10.174;2023-02-28T09:27:14;10.53;;;5.23;;
19883;SDS011;10104;50.732;10.174;2023-02-28T09:29:35;7.63;;;5.27;;
19883;SDS011;10104;50.732;10.174;2023-02-28T09:31:57;7.33;;;5.03;;
19883;SDS011;10104;50.732;10.174;2023-02-28T09:34:19;8.83;;;4.77;;
19883;SDS011;10104;50.732;10.174;2023-02-28T09:36:41;7.13;;;4.50;;
19883;SDS011;10104;50.732;10.174;2023-02-28T09:39:06;7.33;;;4.50;;
19883;SDS011;10104;50.732;10.174;2023-02-28T09:41:29;7.43;;;4.30;;
19883;SDS011;10104;50.732;10.174;2023-02-28T09:44:01;7.67;;;4.60;;
19883;SDS011;10104;50.732;10.174;2023-02-28T09:46:35;7.07;;;4.50;;
19883;SDS011;10104;50.732;10.174;2023-02-28T09:49:02;8.07;;;4.93;;
19883;SDS011;10104;50.732;10.174;2023-02-28T09:51:30;15.33;;;6.17;;
19883;SDS011;10104;50.732;10.174;2023-02-28T09:53:57;8.17;;;4.80;;
19883;SDS011;10104;50.732;10.174;2023-02-28T09:56:24;12.23;;;7.87;;
19883;SDS011;10104;50.732;10.174;2023-02-28T09:59:00;11.20;;;5.93;;
19883;SDS011;10104;50.732;10.174;2023-02-28T10:07:05;5.97;;;4.30;;
19883;SDS011;10104;50.732;10.174;2023-02-28T10:09:39;5.97;;;4.67;;
19883;SDS011;10104;50.732;10.174;2023-02-28T10:12:04;5.77;;;4.70;;
19883;SDS011;10104;50.732;10.174;2023-02-28T10:14:28;8.67;;;4.80;;
19883;SDS011;10104;50.732;10.174;2023-02-28T10:17:11;6.10;;;4.53;;
19883;SDS011;10104;50.732;10.174;2023-02-28T10:22:15;7.60;;;4.50;;
19883;SDS011;10104;50.732;10.174;2023-02-28T10:27:17;5.27;;;3.80;;
19883;SDS011;10104;50.732;10.174;2023-02-28T10:30:14;6.53;;;4.47;;
19883;SDS011;10104;50.732;10.174;2023-02-28T10:32:33;6.13;;;4.10;;
19883;SDS011;10104;50.732;10.174;2023-02-28T10:37:30;6.30;;;4.57;;
19883;SDS011;10104;50.732;10.174;2023-02-28T10:39:53;7.83;;;4.50;;
19883;SDS011;10104;50.732;10.174;2023-02-28T10:42:25;5.60;;;3.90;;
19883;SDS011;10104;50.732;10.174;2023-02-28T10:44:47;4.63;;;3.80;;
19883;SDS011;10104;50.732;10.174;2023-02-28T10:47:14;5.93;;;4.30;;
19883;SDS011;10104;50.732;10.174;2023-02-28T10:49:38;6.77;;;3.83;;
19883;SDS011;10104;50.732;10.174;2023-02-28T10:52:08;5.93;;;3.63;;
19883;SDS011;10104;50.732;10.174;2023-02-28T10:54:32;6.93;;;4.03;;
19883;SDS011;10104;50.732;10.174;2023-02-28T10:57:16;6.83;;;4.67;;
19883;SDS011;10104;50.732;10.174;2023-02-28T10:59:42;5.83;;;4.10;;
19883;SDS011;10104;50.732;10.174;2023-02-28T11:04:57;5.70;;;3.87;;
19883;SDS011;10104;50.732;10.174;2023-02-28T11:07:19;5.30;;;3.90;;
19883;SDS011;10104;50.732;10.174;2023-02-28T11:09:46;7.67;;;5.20;;
19883;SDS011;10104;50.732;10.174;2023-02-28T11:12:19;7.97;;;5.07;;
19883;SDS011;10104;50.732;10.174;2023-02-28T11:14:51;6.23;;;4.37;;
19883;SDS011;10104;50.732;10.174;2023-02-28T11:17:15;7.83;;;5.33;;
19883;SDS011;10104;50.732;10.174;2023-02-28T11:19:52;8.33;;;5.53;;
19883;SDS011;10104;50.732;10.174;2023-02-28T11:22:18;9.07;;;5.13;;
19883;SDS011;10104;50.732;10.174;2023-02-28T11:24:44;6.67;;;4.33;;
19883;SDS011;10104;50.732;10.174;2023-02-28T11:29:54;8.47;;;5.00;;
19883;SDS011;10104;50.732;10.174;2023-02-28T11:32:18;5.90;;;4.50;;
19883;SDS011;10104;50.732;10.174;2023-02-28T11:35:04;7.37;;;4.90;;
19883;SDS011;10104;50.732;10.174;2023-02-28T11:37:31;7.17;;;4.47;;
19883;SDS011;10104;50.732;10.174;2023-02-28T11:39:54;7.80;;;4.97;;
19883;SDS011;10104;50.732;10.174;2023-02-28T11:45:55;7.67;;;4.90;;
19883;SDS011;10104;50.732;10.174;2023-02-28T11:48:09;9.87;;;5.00;;
19883;SDS011;10104;50.732;10.174;2023-02-28T11:55:49;8.03;;;5.20;;
19883;SDS011;10104;50.732;10.174;2023-02-28T12:06:50;7.20;;;4.70;;
19883;SDS011;10104;50.732;10.174;2023-02-28T12:12:36;7.77;;;4.90;;
19883;SDS011;10104;50.732;10.174;2023-02-28T12:17:38;7.40;;;4.93;;
19883;SDS011;10104;50.732;10.174;2023-02-28T12:25:40;8.47;;;5.20;;
19883;SDS011;10104;50.732;10.174;2023-02-28T12:28:07;8.73;;;5.47;;
19883;SDS011;10104;50.732;10.174;2023-02-28T12:30:33;6.97;;;4.90;;
19883;SDS011;10104;50.732;10.174;2023-02-28T12:33:07;7.53;;;5.13;;
19883;SDS011;10104;50.732;10.174;2023-02-28T12:35:34;7.10;;;5.20;;
19883;SDS011;10104;50.732;10.174;2023-02-28T12:38:13;7.43;;;5.20;;
19883;SDS011;10104;50.732;10.174;2023-02-28T12:40:47;7.63;;;5.10;;
19883;SDS011;10104;50.732;10.174;2023-02-28T12:43:16;8.60;;;4.90;;
19883;SDS011;10104;50.732;10.174;2023-02-28T12:45:55;7.00;;;4.57;;
19883;SDS011;10104;50.732;10.174;2023-02-28T12:48:50;8.23;;;4.80;;
19883;SDS011;10104;50.732;10.174;2023-02-28T12:51:17;7.47;;;5.13;;
19883;SDS011;10104;50.732;10.174;2023-02-28T12:56:23;7.23;;;5.60;;
19883;SDS011;10104;50.732;10.174;2023-02-28T12:58:54;6.67;;;5.03;;
19883;SDS011;10104;50.732;10.174;2023-02-28T13:09:41;11.20;;;7.47;;
19883;SDS011;10104;50.732;10.174;2023-02-28T13:12:12;14.57;;;9.97;;
19883;SDS011;10104;50.732;10.174;2023-02-28T13:14:36;14.00;;;9.27;;
19883;SDS011;10104;50.732;10.174;2023-02-28T13:17:00;8.30;;;5.80;;
19883;SDS011;10104;50.732;10.174;2023-02-28T13:19:46;10.83;;;7.87;;
19883;SDS011;10104;50.732;10.174;2023-02-28T13:22:20;10.20;;;6.87;;
19883;SDS011;10104;50.732;10.174;2023-02-28T13:24:57;8.17;;;5.27;;
19883;SDS011;10104;50.732;10.174;2023-02-28T13:27:20;8.10;;;5.10;;
19883;SDS011;10104;50.732;10.174;2023-02-28T13:30:49;9.63;;;6.43;;
19883;SDS011;10104;50.732;10.174;2023-02-28T13:33:19;18.20;;;10.53;;
19883;SDS011;10104;50.732;10.174;2023-02-28T13:35:44;11.57;;;7.53;;
19883;SDS011;10104;50.732;10.174;2023-02-28T13:38:17;11.80;;;7.37;;
19883;SDS011;10104;50.732;10.174;2023-02-28T13:40:44;8.03;;;5.67;;
19883;SDS011;10104;50.732;10.174;2023-02-28T13:43:07;10.97;;;6.30;;
19883;SDS011;10104;50.732;10.174;2023-02-28T13:45:30;11.77;;;6.10;;
19883;SDS011;10104;50.732;10.174;2023-02-28T13:47:59;8.13;;;5.90;;
19883;SDS011;10104;50.732;10.174;2023-02-28T13:50:26;8.30;;;6.13;;
19883;SDS011;10104;50.732;10.174;2023-02-28T14:07:03;9.60;;;7.07;;
19883;SDS011;10104;50.732;10.174;2023-02-28T14:09:32;9.93;;;6.20;;
19883;SDS011;10104;50.732;10.174;2023-02-28T14:11:57;14.13;;;7.33;;
19883;SDS011;10104;50.732;10.174;2023-02-28T14:17:12;9.97;;;5.97;;
19883;SDS011;10104;50.732;10.174;2023-02-28T14:19:37;8.63;;;5.43;;
19883;SDS011;10104;50.732;10.174;2023-02-28T14:24:40;5.87;;;5.27;;
19883;SDS011;10104;50.732;10.174;2023-02-28T14:32:21;12.27;;;6.60;;
19883;SDS011;10104;50.732;10.174;2023-02-28T14:34:50;10.87;;;5.97;;
19883;SDS011;10104;50.732;10.174;2023-02-28T14:37:19;10.10;;;6.00;;
19883;SDS011;10104;50.732;10.174;2023-02-28T14:39:47;8.47;;;5.87;;
19883;SDS011;10104;50.732;10.174;2023-02-28T14:42:29;10.43;;;6.30;;
19883;SDS011;10104;50.732;10.174;2023-02-28T14:44:53;7.33;;;5.80;;
19883;SDS011;10104;50.732;10.174;2023-02-28T14:47:17;11.17;;;6.10;;
19883;SDS011;10104;50.732;10.174;2023-02-28T14:49:42;8.90;;;6.07;;
19883;SDS011;10104;50.732;10.174;2023-02-28T14:54:31;9.77;;;6.73;;
19883;SDS011;10104;50.732;10.174;2023-02-28T14:56:52;11.80;;;7.07;;
19883;SDS011;10104;50.732;10.174;2023-02-28T14:59:28;10.53;;;5.70;;
19883;SDS011;10104;50.732;10.174;2023-02-28T15:01:50;9.03;;;5.90;;
19883;SDS011;10104;50.732;10.174;2023-02-28T15:04:16;9.20;;;6.33;;
19883;SDS011;10104;50.732;10.174;2023-02-28T15:06:44;8.73;;;6.03;;
19883;SDS011;10104;50.732;10.174;2023-02-28T15:09:16;8.30;;;5.60;;
19883;SDS011;10104;50.732;10.174;2023-02-28T15:11:39;10.37;;;5.40;;
19883;SDS011;10104;50.732;10.174;2023-02-28T15:14:01;13.10;;;6.83;;
19883;SDS011;10104;50.732;10.174;2023-02-28T15:16:34;11.23;;;6.40;;
19883;SDS011;10104;50.732;10.174;2023-02-28T15:19:00;13.73;;;6.87;;
19883;SDS011;10104;50.732;10.174;2023-02-28T15:23:51;10.13;;;5.97;;
19883;SDS011;10104;50.732;10.174;2023-02-28T15:26:21;11.53;;;6.93;;
19883;SDS011;10104;50.732;10.174;2023-02-28T15:28:48;11.57;;;6.97;;
19883;SDS011;10104;50.732;10.174;2023-02-28T15:31:26;11.37;;;6.83;;
19883;SDS011;10104;50.732;10.174;2023-02-28T15:34:02;10.73;;;6.40;;
19883;SDS011;10104;50.732;10.174;2023-02-28T15:36:28;8.73;;;6.40;;
19883;SDS011;10104;50.732;10.174;2023-02-28T15:38:53;9.53;;;5.97;;
19883;SDS011;10104;50.732;10.174;2023-02-28T15:41:24;10.73;;;6.40;;
19883;SDS011;10104;50.732;10.174;2023-02-28T15:44:13;11.50;;;6.50;;
19883;SDS011;10104;50.732;10.174;2023-02-28T15:46:55;8.87;;;6.20;;
19883;SDS011;10104;50.732;10.174;2023-02-28T15:49:20;12.50;;;6.77;;
19883;SDS011;10104;50.732;10.174;2023-02-28T15:51:43;10.10;;;6.67;;
19883;SDS011;10104;50.732;10.174;2023-02-28T15:54:06;10.87;;;6.67;;
19883;SDS011;10104;50.732;10.174;2023-02-28T15:56:33;12.07;;;7.73;;
19883;SDS011;10104;50.732;10.174;2023-02-28T15:59:06;10.93;;;6.80;;
19883;SDS011;10104;50.732;10.174;2023-02-28T16:01:34;10.10;;;6.67;;
19883;SDS011;10104;50.732;10.174;2023-02-28T16:03:59;9.90;;;6.77;;
19883;SDS011;10104;50.732;10.174;2023-02-28T16:06:43;10.30;;;6.67;;
19883;SDS011;10104;50.732;10.174;2023-02-28T16:09:06;13.80;;;8.30;;
19883;SDS011;10104;50.732;10.174;2023-02-28T16:11:29;12.83;;;7.83;;
19883;SDS011;10104;50.732;10.174;2023-02-28T16:13:52;14.07;;;8.93;;
19883;SDS011;10104;50.732;10.174;2023-02-28T16:16:15;16.67;;;10.73;;